Reportages photos

Connexion

10Km

10 KM Licques du 09/10/16 (Reelle 10)
Rang Dossard Nom Prénom Temps Cat Rang Cat Ecart Ecart Cat Club Vitesse Km/h Temps au Km
1 10246 BARAK ALI 00:32:38 JUM 1 00:00:00 00:00:00 ENTENTE MARITIME ATHL. 18,386 03:16
2 10245 PICHONNIER GUILLAUME 00:34:14 SEM 1 00:01:36 00:00:00 BOULOGNE ATHLETIQUE CLUB 17,527 03:25
3 10259 HOLARD MAXIMILIEN 00:34:44 SEM 2 00:02:06 00:00:30 - 17,274 03:28
4 10219 MEATS ANTOINE 00:34:57 SEM 3 00:02:19 00:00:43 - 17,167 03:30
5 10091 MAQUIGNON Sacha 00:35:50 CAM 1 00:03:12 00:00:00 BLANC NEZ TRIATHLON 16,744 03:35
6 10067 BRUNET Mickael 00:36:12 SEM 4 00:03:34 00:01:58 16,575 03:37
7 10089 DUFRESNE Fabien 00:36:19 SEM 5 00:03:41 00:02:05 16,521 03:38
8 10137 PRUVOT Ludovic 00:36:34 V1M 1 00:03:56 00:00:00 BOULOGNE ATLETIC CLUB 16,408 03:39
9 10280 PECQUEUX LUCAS 00:36:36 ESM 1 00:03:58 00:00:00 - 16,393 03:40
10 10209 IMMOUWI AZIZ 00:36:52 SEM 6 00:04:14 00:02:38 NL 16,275 03:41
11 10061 LIMOUSIN Stephane 00:37:01 V1M 2 00:04:23 00:00:27 LA PATRIOTE CROSS DE GUîNES 16,209 03:42
12 10195 MATHIEU Paul 00:37:07 ESM 2 00:04:29 00:00:31 AS MARCK ATHLETISME 16,165 03:43
13 10102 DUMONT Florent 00:37:45 V1M 3 00:05:07 00:01:11 LYS CALAIS TRIATHLON 15,894 03:47
14 10232 RUMEAU MICHAEL 00:37:49 SEM 7 00:05:11 00:03:35 - 15,866 03:47
15 10063 BOULY Jerome 00:37:50 V1M 4 00:05:12 00:01:16 AC OUTREAU 15,859 03:47
16 10106 LOEUILLIEUX Stéphane 00:38:00 V1M 5 00:05:22 00:01:26 TEAM RUN OPALE 15,789 03:48
17 10017 BEGUE Xavier 00:38:01 V1M 6 00:05:23 00:01:27 15,783 03:48
18 10079 DIMPRE Christophe 00:38:28 V1M 7 00:05:50 00:01:54 AS MARCK ATHLETISME 15,598 03:51
19 10014 FOULON Julien 00:38:36 SEM 8 00:05:58 00:04:22 15,544 03:52
20 10189 DUCROCQ Virgil 00:38:36 ESM 3 00:05:58 00:02:00 15,544 03:52
21 10203 DUMONT ALEXIS 00:38:41 SEM 9 00:06:03 00:04:27 NON LICENCIE 15,511 03:52
22 10161 DUCROCQ Arnaud 00:38:44 V1M 8 00:06:06 00:02:10 LA PATRIOTE DE GUINES 15,491 03:52
23 10193 ROZE Frederic 00:38:48 SEM 10 00:06:10 00:04:34 15,464 03:53
24 10241 DELOHEN STEPHANE 00:38:49 V2M 1 00:06:11 00:00:00 R.C. BLENDECQUES 15,457 03:53
25 10155 LEBEC Mickael 00:38:52 SEM 11 00:06:14 00:04:38 AC CAPELLOIS 15,437 03:53
26 10138 DUCROCQ Christophe 00:38:55 V1M 9 00:06:17 00:02:21 WIMEREUX RUNNING CLUB 15,418 03:54
27 10084 SKRZYPCZAK David 00:39:11 SEM 12 00:06:33 00:04:57 BERCK OPALE SUD TRIATHLON 15,313 03:55
28 10211 DAUSQUES ALAIN 00:39:20 V1M 10 00:06:42 00:02:46 - 15,254 03:56
29 10276 FONTAINE NICOLAS 00:39:25 SEM 13 00:06:47 00:05:11 ATHLETISME CLUB OUTREAU 15,222 03:56
30 10098 PRUDHOMME Georges 00:39:25 V2M 2 00:06:47 00:00:36 COURIR DANS LE LUMBROIS 15,222 03:56
31 10003 COILLIOT Amélie 00:39:34 V1F 1 00:06:56 00:00:00 FREVENT OLYMPIC CLUB 15,164 03:57
32 10218 LAMIRAND ALINE 00:39:39 SEF 1 00:07:01 00:00:00 A.S. MARCK 15,132 03:58
33 10013 BERLY Boris 00:39:53 SEM 14 00:07:15 00:05:39 15,044 03:59
34 10027 TISSERAND Thibaut 00:40:05 ESM 4 00:07:27 00:03:29 14,969 04:00
35 10025 RIFFLART Benoit 00:40:09 SEM 15 00:07:31 00:05:55 LYS CALAIS TRIATHLON 14,944 04:01
36 10208 GIROUD FRANCK 00:40:24 V1M 11 00:07:46 00:03:50 A.S. MARCK 14,851 04:02
37 10108 VANDAELE Benoit 00:40:24 SEM 16 00:07:46 00:06:10 COURIR DANS LE LUMBROIS 14,851 04:02
38 10131 LELEU Laetitia 00:40:27 V1F 2 00:07:49 00:00:53 AMICALE LE DRAPEAU LE PORTEL 14,833 04:03
39 10111 DEPLECHIN David 00:40:27 V1M 12 00:07:49 00:03:53 TEAM TRAIL 62 14,833 04:03
40 10005 DELEHAYE Morgan 00:40:27 CAM 2 00:07:49 00:04:37 JOGGING CLUB LICQUOIS 14,833 04:03
41 10052 ARNAUD Ducrocq 00:40:29 V2M 3 00:07:51 00:01:40 ELAN FRUGEOIS 14,821 04:03
42 10062 MANGARD Nicolas 00:40:29 SEM 17 00:07:51 00:06:15 TEAM TRAIL 62 14,821 04:03
43 10053 DUCASSE Antoine 00:40:36 SEM 18 00:07:58 00:06:22 14,778 04:04
44 10263 DEWET WILFRIED 00:40:43 V1M 13 00:08:05 00:04:09 - 14,736 04:04
45 10145 BARRAS Julien 00:40:46 SEM 19 00:08:08 00:06:32 AS MARCK 14,718 04:05
46 10192 MARCOTTE Hugo 00:40:47 CAM 3 00:08:09 00:04:57 14,712 04:05
47 10226 CONSTANT ARNAUD 00:40:49 V1M 14 00:08:11 00:04:15 A.S. MARCK 14,700 04:05
48 10008 BELLET Jean-francois 00:41:02 V1M 15 00:08:24 00:04:28 LYS CALAIS TRIATHLON 14,622 04:06
49 10258 LECLERCQ MAXIME 00:41:06 SEM 20 00:08:28 00:06:52 - 14,599 04:07
50 10167 ZULMEA Devy 00:41:09 V1M 16 00:08:31 00:04:35 LA PATRIOTE DE GUINES 14,581 04:07
51 10262 SERGEANT CLEMENT 00:41:11 SEM 21 00:08:33 00:06:57 - 14,569 04:07
52 10244 VERITE CEDRIC 00:41:15 SEM 22 00:08:37 00:07:01 SPORT PLUS 14,545 04:07
53 10194 MATHIEU Emmanuel 00:41:24 V2M 4 00:08:46 00:02:35 AS MARCK ATHLETISME 14,493 04:08
54 10021 CEUGNART Arnaud 00:41:25 V1M 17 00:08:47 00:04:51 O A HAZEBROUCK 14,487 04:09
55 10140 CHEUVA Loïc 00:41:33 V1M 18 00:08:55 00:04:59 14,440 04:09
56 10071 HARDY Fabien 00:41:41 V1M 19 00:09:03 00:05:07 14,394 04:10
57 10044 CRETON Julien 00:41:43 SEM 23 00:09:05 00:07:29 AC OUTREAU 14,383 04:10
58 10242 BUSSON ELIE 00:41:56 SEM 24 00:09:18 00:07:42 - 14,308 04:12
59 10230 QUENEHEN EMMANUEL 00:41:57 SEM 25 00:09:19 00:07:43 - 14,303 04:12
60 10040 QUENNEHEN Hervé 00:41:59 V1M 20 00:09:21 00:05:25 LA PATRIOTE DE GUINES 14,291 04:12
61 10034 CORDIER Arnaud 00:42:05 SEM 26 00:09:27 00:07:51 ALKATRAIL 14,257 04:13
62 10024 PILLOT Théophile 00:42:07 V1M 21 00:09:29 00:05:33 FREVENT OLYMPIC CLUB 14,246 04:13
63 10198 TILLIER LUDOVIC 00:42:16 SEM 27 00:09:38 00:08:02 WIMEREUX RUNNING CLUB 14,196 04:14
64 10150 CAMPAGNE Guillaume 00:42:17 SEM 28 00:09:39 00:08:03 14,190 04:14
65 10104 BOCQUET Patrick 00:42:23 V3M 1 00:09:45 00:00:00 14,157 04:14
66 10206 DETRES JEAN-BERNARD 00:42:25 V1M 22 00:09:47 00:05:51 A.S. MARCK 14,145 04:15
67 10225 TRUPIN DAMIEN 00:42:33 V1M 23 00:09:55 00:05:59 - 14,101 04:15
68 10181 FARNWORTH Graeme 00:42:35 V2M 5 00:09:57 00:03:46 AC CAPELLOIS 14,090 04:16
69 10271 ROBART EDDY 00:42:47 V1M 24 00:10:09 00:06:13 CS NESLES 14,024 04:17
70 10036 LAURENT Yohan 00:42:48 SEM 29 00:10:10 00:08:34 ALKATRAIL 14,019 04:17
71 10136 COCQUET Vincent 00:42:55 V1M 25 00:10:17 00:06:21 MARCKATHLON 13,981 04:17
72 10012 FOURNIER Olivier 00:42:55 V1M 26 00:10:17 00:06:21 GRAVELINES TRIATHLON 13,981 04:17
73 10124 DAMIENS Philippe 00:43:11 V1M 27 00:10:33 00:06:37 AMICALE LE DRAPEAU LE PORTEL 13,894 04:19
74 10085 PAUCHET Jérémy 00:43:25 SEM 30 00:10:47 00:09:11 BERCK OPALE SUD TRIATHLON 13,820 04:20
75 10032 CHRETIEN Fabien 00:43:28 SEM 31 00:10:50 00:09:14 13,804 04:21
76 10200 BERDIN VALERIE 00:43:37 V1F 3 00:10:59 00:04:03 NON LICENCIE 13,756 04:22
77 10093 LEFRANC Mathéo 00:43:42 CAM 4 00:11:04 00:07:52 ELAN FRUGEOIS 13,730 04:22
78 10154 TALANDIER Coralie 00:43:49 SEF 2 00:11:11 00:04:10 13,693 04:23
79 10045 BAUW Stephane 00:43:50 SEM 32 00:11:12 00:09:36 COURIR CANTON CASSEL 13,688 04:23
80 10055 BEGUE Yannick 00:43:55 V1M 28 00:11:17 00:07:21 13,662 04:24
81 10039 JOLY Matthieu 00:43:58 V1M 29 00:11:20 00:07:24 ALKATRAIL 13,647 04:24
82 10261 PERON MAXIME 00:44:00 SEM 33 00:11:22 00:09:46 - 13,636 04:24
83 10255 GIGADEN EDDY 00:44:08 V1M 30 00:11:30 00:07:34 - 13,595 04:25
84 10031 LEGRAND Matthieu 00:44:10 V1M 31 00:11:32 00:07:36 13,585 04:25
85 10254 GIGADEN MATHILDE 00:44:11 V1F 4 00:11:33 00:04:37 ATHLETISME CLUB OUTREAU 13,580 04:25
86 10221 SCOTTE MATTHIEU 00:44:12 SEM 34 00:11:34 00:09:58 - 13,575 04:25
87 10187 AZELART Benoit 00:44:21 SEM 35 00:11:43 00:10:07 13,529 04:26
88 10210 LEGRAND ALEXIS 00:44:22 SEM 36 00:11:44 00:10:08 - 13,524 04:26
89 10191 BERNARD Stephane 00:44:37 SEM 37 00:11:59 00:10:23 13,448 04:28
90 10205 DERTHE LUDOVIC 00:44:43 V1M 32 00:12:05 00:08:09 NON LICENCIE 13,418 04:28
91 10128 HANON Jean-pierre 00:44:47 V3M 2 00:12:09 00:02:24 AMICALE LE DRAPEAU LE PORTEL 13,398 04:29
92 10216 BECQUET DAVID 00:44:48 V1M 33 00:12:10 00:08:14 - 13,393 04:29
93 10172 GAVOIS Jimmy 00:44:49 V1M 34 00:12:11 00:08:15 LA PATRIOTE DE GUINES 13,388 04:29
94 10149 LECOCQ François 00:44:50 SEM 38 00:12:12 00:10:36 13,383 04:29
95 10144 FLOURET Stéphanie 00:44:54 V1F 5 00:12:16 00:05:20 SPORT PLUS 13,363 04:29
96 10086 ELLART Helene 00:44:54 SEF 3 00:12:16 00:05:15 SPORT PLUS 13,363 04:29
97 10227 GOBERT SAMUEL 00:45:01 V1M 35 00:12:23 00:08:27 Hergnies Athlétique Club 13,328 04:30
98 10265 PETOLAS VALENTIN 00:45:08 SEM 39 00:12:30 00:10:54 - 13,294 04:31
99 10146 TELLIER Pierre 00:45:11 SEM 40 00:12:33 00:10:57 US MARQUISE 13,279 04:31
100 10243 VICONGNE GEOFFREY 00:45:12 SEM 41 00:12:34 00:10:58 - 13,274 04:31
101 10234 LANNOY JEAN-YVES 00:45:12 V2M 6 00:12:34 00:06:23 - 13,274 04:31
102 10260 FRANCOIS FREDERIC 00:45:16 V1M 36 00:12:38 00:08:42 - 13,255 04:32
103 10050 DELEU Patrick 00:45:22 V2M 7 00:12:44 00:06:33 RUNNING CLUB DE BLENDECQUES 13,226 04:32
104 10109 STEVENART Michel 00:45:31 V2M 8 00:12:53 00:06:42 COURIR DANS LE LUMBROIS 13,182 04:33
105 10235 CRETEL LAURENT 00:45:31 V1M 37 00:12:53 00:08:57 CS NESLES 13,182 04:33
106 10026 TISSERAND Xavier 00:45:34 V2M 9 00:12:56 00:06:45 13,168 04:33
107 10033 DELEGLISE Cyril 00:45:34 SEM 42 00:12:56 00:11:20 ALKATRAIL 13,168 04:33
108 10207 DEKNUDT JEAN-BAPTISTE 00:45:36 ESM 5 00:12:58 00:09:00 NON LICENCIE 13,158 04:34
109 10142 BARON Arnaud 00:45:41 V1M 38 00:13:03 00:09:07 13,134 04:34
110 10113 WARIN Alexandre 00:45:53 ESM 6 00:13:15 00:09:17 13,077 04:35
111 10222 CLERBOUT MARC 00:45:54 V2M 10 00:13:16 00:07:05 R.C. BLENDECQUES 13,072 04:35
112 10249 GRASSELLI ENZO 00:45:56 MIM 1 00:13:18 00:00:00 - 13,062 04:36
113 10220 BRECQUEVILLE Lionel 00:45:58 V1M 39 00:13:20 00:09:24 AC CAPELLOIS 13,053 04:36
114 10184 OVION Sylvestre 00:45:58 V1M 40 00:13:20 00:09:24 AC CAPELLOIS 13,053 04:36
115 10253 GUYOT CHRISTOPHE 00:45:58 V1M 41 00:13:20 00:09:24 - 13,053 04:36
116 10214 ROBERT DAVID 00:45:59 V1M 42 00:13:21 00:09:25 ATHLETISME CLUB OUTREAU 13,048 04:36
117 10182 NORMANT Alain 00:46:03 V2M 11 00:13:25 00:07:14 AC CAPELLOIS 13,029 04:36
118 10097 MARGUET Christophe 00:46:19 V1M 43 00:13:41 00:09:45 12,954 04:38
119 10159 FRANCOIS Nicolas 00:46:21 SEM 43 00:13:43 00:12:07 12,945 04:38
120 10088 TREMBLAY Philippe 00:46:21 V2M 12 00:13:43 00:07:32 12,945 04:38
121 10046 BAUW Angelique 00:46:23 SEF 4 00:13:45 00:06:44 COURIR CANTON CASSEL 12,936 04:38
122 10174 LORGNIER Emmanuel 00:46:24 V1M 44 00:13:46 00:09:50 12,931 04:38
123 10070 BOULANGER Liliane 00:46:28 V1F 6 00:13:50 00:06:54 12,912 04:39
124 10103 DEFACHELLES Jerome 00:46:28 V1M 45 00:13:50 00:09:54 12,912 04:39
125 10215 DROLLET HERVE 00:46:28 V2M 13 00:13:50 00:07:39 - 12,912 04:39
126 10179 DELETOILLE Julien 00:46:29 SEM 44 00:13:51 00:12:15 AC CAPELLOIS 12,908 04:39
127 10252 LECOUSTRE WILFRIED 00:46:31 SEM 45 00:13:53 00:12:17 - 12,899 04:39
128 10112 WEILLAERT Pierre 00:46:48 JUM 2 00:14:10 00:14:10 12,821 04:41
129 10247 CHARLEMAGNE GUILLAUME 00:46:55 SEM 46 00:14:17 00:12:41 - 12,789 04:41
130 10019 MIEZE Nicolas 00:46:56 SEM 47 00:14:18 00:12:42 12,784 04:42
131 10240 DEBOUDT CHRISTOPHE 00:46:57 SEM 48 00:14:19 00:12:43 - 12,780 04:42
132 10116 BONNET Michael 00:46:58 SEM 49 00:14:20 00:12:44 RUNNING CLUB BLENDECQUES 12,775 04:42
133 10236 DEGARDIN DAVID 00:47:03 SEM 50 00:14:25 00:12:49 ATHLETIQUE CLUB CAPELLOIS 12,752 04:42
134 10228 CHOUROT LUCIEN 00:47:08 V2M 14 00:14:30 00:08:19 LE DRAPEAU 12,730 04:43
135 10153 LECRAS Mickael 00:47:13 SEM 51 00:14:35 00:12:59 12,707 04:43
136 10213 LEGGHE GILLES 00:47:17 V1M 46 00:14:39 00:10:43 - 12,689 04:44
137 10076 ALVES DOS SANTOS Romuald 00:47:21 V1M 47 00:14:43 00:10:47 12,672 04:44
138 10117 TROUILLE Gaëtan 00:47:23 V1M 48 00:14:45 00:10:49 12,663 04:44
139 10078 DUVIEUXBOURG David 00:47:25 SEM 52 00:14:47 00:13:11 12,654 04:45
140 10127 FLAHAUT Frédéric 00:47:34 SEM 53 00:14:56 00:13:20 AMICALE LE DRAPEAU LE PORTEL 12,614 04:45
141 10212 PORCHET BRUNO 00:47:36 V3M 3 00:14:58 00:05:13 - 12,605 04:46
142 10204 MOITY FRANCK 00:47:39 V2M 15 00:15:01 00:08:50 NON LICENCIE 12,592 04:46
143 10272 SAILLY KAREN 00:47:42 SEF 5 00:15:04 00:08:03 - 12,579 04:46
144 10049 CARON Didier 00:47:44 V1M 49 00:15:06 00:11:10 12,570 04:46
145 10274 SAILLY DOMINIQUE 00:47:49 SEM 54 00:15:11 00:13:35 - 12,548 04:47
146 10277 CAPELLE MICHEL 00:47:53 V2M 16 00:15:15 00:09:04 - 12,530 04:47
147 10120 WIDEHEM Stéphane 00:47:54 V1M 50 00:15:16 00:11:20 ÉLAN FRUGEOIS 12,526 04:47
148 10075 PRUVOST Romain 00:48:03 SEM 55 00:15:25 00:13:49 TEAM TRAIL 62 12,487 04:48
149 10028 DUHAMEL Christophe 00:48:11 V1M 51 00:15:33 00:11:37 12,452 04:49
150 10165 LEBRUN Caroline 00:48:12 SEF 6 00:15:34 00:08:33 STADE OLYMPIQUE CALAIS 12,448 04:49
151 10168 CRETEUR Olivier 00:48:25 SEM 56 00:15:47 00:14:11 LA PATRIOTE DE GUINES 12,392 04:51
152 10101 GROSSEL Stéphanie 00:48:27 SEF 7 00:15:49 00:08:48 BERCK OPALE SUD TRIATHLON 12,384 04:51
153 10257 SAINT-GEORGES AYMERIC 00:48:27 V1M 52 00:15:49 00:11:53 - 12,384 04:51
154 10166 CARBONNIER Sébastien 00:48:30 V1M 53 00:15:52 00:11:56 LA PATRIOTE DE GUINES 12,371 04:51
155 10048 LECOUFFE Amandine 00:48:36 SEF 8 00:15:58 00:08:57 12,346 04:52
156 10105 LOEUILLIEUX Julien 00:48:42 SEM 57 00:16:04 00:14:28 12,320 04:52
157 10229 PECQUEUX LAURENT 00:48:42 V1M 54 00:16:04 00:12:08 - 12,320 04:52
158 10170 CROQUELOIS Nicolas 00:48:54 V1M 55 00:16:16 00:12:20 12,270 04:53
159 10022 CHARTRELLE Christophe 00:49:07 V1M 56 00:16:29 00:12:33 12,216 04:55
160 10115 RENAUT Maxime 00:49:12 V1M 57 00:16:34 00:12:38 12,195 04:55
161 10248 DUVENT FREDERIC 00:49:14 V1M 58 00:16:36 00:12:40 - 12,187 04:55
162 10087 TREMBLAY Beatrice 00:49:15 V1F 7 00:16:37 00:09:41 12,183 04:56
163 10267 HARLE JOHAN 00:49:16 V1M 59 00:16:38 00:12:42 - 12,179 04:56
164 10123 BERNARD Sylvie 00:49:19 V1F 8 00:16:41 00:09:45 AMICALE LE DRAPEAU LE PORTEL 12,166 04:56
165 10157 ELLART Sandra 00:49:24 V1F 9 00:16:46 00:09:50 MARCKATHLON 12,146 04:56
166 10077 MAQUET Maxime 00:49:25 SEM 58 00:16:47 00:15:11 12,142 04:57
167 10175 LEGUAY Marianick 00:49:25 V1F 10 00:16:47 00:09:51 12,142 04:57
168 10035 PERARD Loetitia 00:49:30 SEF 9 00:16:52 00:09:51 ALKATRAIL 12,121 04:57
169 10043 DUCLOIE Gregory 00:49:33 V1M 60 00:16:55 00:12:59 12,109 04:57
170 10133 PAQUES Eric 00:49:34 V2M 17 00:16:56 00:10:45 AMICALE LE DRAPEAU LE PORTEL 12,105 04:57
171 10143 CAMPION Jérôme 00:49:43 V1M 61 00:17:05 00:13:09 WASC 12,068 04:58
172 10081 LEFEBVRE Arnaud 00:49:54 SEM 59 00:17:16 00:15:40 12,024 04:59
173 10275 GRASSELLI FLORENT 00:49:54 SEM 60 00:17:16 00:15:40 - 12,024 04:59
174 10095 DARCHEVILLE Christophe 00:49:55 V1M 62 00:17:17 00:13:21 12,020 05:00
175 10201 RINGOT CEDRIC 00:50:07 SEM 61 00:17:29 00:15:53 NON LICENCIE 11,972 05:01
176 10270 LEROUGE DAVID 00:50:10 V1M 63 00:17:32 00:13:36 CS NESLES 11,960 05:01
177 5151 CODRON STEPHANE 00:50:18 V1M 64 00:17:40 00:13:44 LE DRAPEAU 11,928 05:02
178 10056 MALBAUT Sophie 00:50:20 SEF 10 00:17:42 00:10:41 11,921 05:02
179 10266 SAMELOT VINCENT 00:50:24 SEM 62 00:17:46 00:16:10 - 11,905 05:02
180 10010 MUYLS Pauline 00:50:24 SEF 11 00:17:46 00:10:45 11,905 05:02
181 10082 DUCHAUSSOIS Bertrand 00:50:26 V3M 4 00:17:48 00:08:03 11,897 05:03
182 10141 THIRARD Romaric 00:50:27 SEM 63 00:17:49 00:16:13 11,893 05:03
183 10188 RINGOT David 00:50:31 V1M 65 00:17:53 00:13:57 11,877 05:03
184 10020 QUIEVRE Catherine 00:50:37 SEF 12 00:17:59 00:10:58 11,854 05:04
185 10173 BENARD Nicolas 00:50:42 SEM 64 00:18:04 00:16:28 LA PATRIOTE DE GUINES 11,834 05:04
186 10090 DUBOIS Francois 00:50:46 SEM 65 00:18:08 00:16:32 11,819 05:05
187 10162 DA SILVA Anne sophie 00:50:48 V2F 1 00:18:10 00:00:00 LA PATRIOTE DE GUINES 11,811 05:05
188 10047 HEUX Jacqueline 00:50:52 V1F 11 00:18:14 00:11:18 COLEMBERT 11,796 05:05
189 10016 NOEL Sandrine 00:51:27 SEF 13 00:18:49 00:11:48 ELAN FRUGEOIS 11,662 05:09
190 10018 ARNOUTS Nicolas 00:51:33 SEM 66 00:18:55 00:17:19 11,639 05:09
191 10158 LEDUC Marie laure 00:51:36 SEF 14 00:18:58 00:11:57 11,628 05:10
192 10121 BAILLEU Christian 00:51:38 V1M 66 00:19:00 00:15:04 AMICALE LE DRAPEAU LE PORTE 11,620 05:10
193 10233 TASSART HELENE 00:51:42 SEF 15 00:19:04 00:12:03 A.S. MARCK 11,605 05:10
194 10231 BIRO SOREN 00:51:42 SEM 67 00:19:04 00:17:28 - 11,605 05:10
195 10037 LAMARE Cédric 00:51:43 SEM 68 00:19:05 00:17:29 ALKATRAIL 11,602 05:10
196 10130 LEBEGUE Thérèse 00:51:52 V2F 2 00:19:14 00:01:04 AMICALE LE DRAPEAU LE PORTEL 11,568 05:11
197 10199 LEOTY AUDREY 00:51:55 SEF 16 00:19:17 00:12:16 AS - Mark Athlétisme 11,557 05:12
198 10080 MERLIN David 00:52:06 V1M 67 00:19:28 00:15:32 11,516 05:13
199 10269 FOURCROY DANIEL 00:52:20 V3M 5 00:19:42 00:09:57 - 11,465 05:14
200 10202 BOUSSEMAERE THOMAS 00:52:25 SEM 69 00:19:47 00:18:11 NON LICENCIE 11,447 05:15
201 10129 HANON Liliane 00:52:26 V3F 1 00:19:48 00:00:00 AMICALE LE DRAPEAU LE PORTEL 11,443 05:15
202 10238 DEHAME ADRIEN 00:52:36 SEM 70 00:19:58 00:18:22 - 11,407 05:16
203 10051 DEBAS Gerard 00:52:45 V3M 6 00:20:07 00:10:22 11,374 05:17
204 10092 VALLEZ Inès 00:52:48 SEF 17 00:20:10 00:13:09 11,364 05:17
205 10185 SELLIER Delphine 00:52:49 V1F 12 00:20:11 00:13:15 AC CAPELLOIS 11,360 05:17
206 10177 ANDRICQ Stéphane 00:52:58 V1M 68 00:20:20 00:16:24 AC CAPELLOIS 11,328 05:18
207 10122 BAILLY Isabelle 00:52:59 V1F 13 00:20:21 00:13:25 AMICALE LE DRAPEAU LE PORTEL 11,324 05:18
208 10239 ROBART FRANCOIS 00:53:09 V2M 18 00:20:31 00:14:20 - 11,289 05:19
209 10237 CRETEL LAURENCE 00:53:13 V1F 14 00:20:35 00:13:39 CS NESLES 11,275 05:19
210 10042 DELPLANQUE Yann 00:53:15 V1M 69 00:20:37 00:16:41 11,268 05:20
211 10068 BONDENET Xavier 00:53:24 SEM 71 00:20:46 00:19:10 11,236 05:20
212 10250 BRUSEL CHRISTOPHE 00:53:34 V1M 70 00:20:56 00:17:00 - 11,201 05:21
213 10064 LEFEBVRE Denise 00:53:38 V3F 2 00:21:00 00:01:12 11,187 05:22
214 10176 ROUX Florence 00:53:44 SEF 18 00:21:06 00:14:05 AC OUTREAU 11,166 05:22
215 10156 ETCHEPARE Jean philippe 00:53:45 SEM 72 00:21:07 00:19:31 SOC ATLHETISME 11,163 05:22
216 10171 CROQUELOIS Celine 00:54:04 SEF 19 00:21:26 00:14:25 S.O. CALAIS ATHLÉTISME 11,097 05:24
217 10038 DEVRIES Nathalie 00:54:05 V1F 15 00:21:27 00:14:31 ALKATRAIL 11,094 05:25
218 10096 GOURNAY Audrey 00:54:10 SEF 20 00:21:32 00:14:31 11,077 05:25
219 10119 VANACKERE Frederic 00:54:10 V2M 19 00:21:32 00:15:21 11,077 05:25
220 10083 ABDORRAHMANE Zoibida 00:54:28 V2F 3 00:21:50 00:03:40 11,016 05:27
221 10057 QUILLET Ludovic 00:54:35 V1M 71 00:21:57 00:18:01 10,992 05:28
222 10190 MONCOMBLE David 00:54:35 SEM 73 00:21:57 00:20:21 10,992 05:28
223 10069 LEPRÊTRE Stéphanie 00:54:41 SEF 21 00:22:03 00:15:02 10,972 05:28
224 10072 GAURIER Lucile 00:54:41 SEF 22 00:22:03 00:15:02 10,972 05:28
225 10196 GOETGELUCK Arnaud 00:54:47 SEM 74 00:22:09 00:20:33 10,952 05:29
226 10197 LENGLET Marie 00:54:47 SEF 23 00:22:09 00:15:08 10,952 05:29
227 10118 NION Edith 00:54:55 V1F 16 00:22:17 00:15:21 10,926 05:30
228 10256 DEJAEGHERE FREDERIC 00:55:47 V1M 72 00:23:09 00:19:13 ALKA TRAIL 10,756 05:35
229 10114 VANDAMME Virginie 00:55:52 V1F 17 00:23:14 00:16:18 10,740 05:35
230 10264 MARTEL VANESSA 00:55:54 V1F 18 00:23:16 00:16:20 - 10,733 05:35
231 10152 LALLEMENT Xavier 00:56:06 SEM 75 00:23:28 00:21:52 10,695 05:37
232 10041 MACHU Christine 00:56:15 V2F 4 00:23:37 00:05:27 COURIR A GRAVELINES 10,667 05:37
233 10279 DEMIRDJIAN ARSENE 00:56:15 V2M 20 00:23:37 00:17:26 - 10,667 05:37
234 10278 JOUGLET FRANCK 00:56:16 V1M 73 00:23:38 00:19:42 - 10,664 05:38
235 10107 BAYARD David 00:56:17 V1M 74 00:23:39 00:19:43 COURIR DANS LE LUMBROIS 10,660 05:38
236 10217 MODOLO FANNY 00:56:25 V1F 19 00:23:47 00:16:51 LE DRAPEAU 10,635 05:39
237 10002 SABLON Emmanuel 00:56:28 V1M 75 00:23:50 00:19:54 10,626 05:39
238 10065 GOURDIN Lucas 00:56:30 SEM 76 00:23:52 00:22:16 10,619 05:39
239 10169 DELRUE Charlotte 00:57:56 SEF 24 00:25:18 00:18:17 10,357 05:48
240 10183 OVION Agnès 00:58:05 V1F 20 00:25:27 00:18:31 AC CAPELLOIS 10,330 05:48
241 10110 GUILLIZZONI Valerie 00:58:20 V1F 21 00:25:42 00:18:46 10,286 05:50
242 10268 GENNEBAUD CAROLE 00:58:23 SEF 25 00:25:45 00:18:44 - 10,277 05:50
243 10094 LESAFFRE Nadège 00:58:31 V1F 22 00:25:53 00:18:57 AC OUTREAU 10,253 05:51
244 10139 THOMAS François 00:58:34 V1M 76 00:25:56 00:22:00 S.O. CALAIS ATHLéTISME 10,245 05:51
245 10186 SELLIER Lucie 00:58:45 CAF 1 00:26:07 00:00:00 AC CAPELLOIS 10,213 05:53
246 10001 THIEBAUD Jessica 00:58:55 SEF 26 00:26:17 00:19:16 10,184 05:54
247 10000 JUDAS Fabien 00:58:56 SEM 77 00:26:18 00:24:42 10,181 05:54
248 10148 PAUL Murielle 00:58:57 SEF 27 00:26:19 00:19:18 10,178 05:54
249 10223 LEROY AURELIE 00:59:10 SEF 28 00:26:32 00:19:31 - 10,141 05:55
250 10224 FOURNIER FRANCOIS 00:59:11 V1M 77 00:26:33 00:22:37 - 10,138 05:55
251 10251 DAILLIEZ JEAN CLAUDE 00:59:27 V3M 7 00:26:49 00:17:04 - 10,093 05:57
252 10029 ALLART Frédérique 01:00:05 V1F 23 00:27:27 00:20:31 9,986 06:01
253 10030 ALLART Mickael 01:00:05 V1M 78 00:27:27 00:23:31 9,986 06:01
254 10058 MERLIN Matt 01:01:32 SEM 78 00:28:54 00:27:18 9,751 06:09
255 10015 PARISSEAUX Caroline 01:01:59 SEF 29 00:29:21 00:22:20 9,680 06:12
256 10100 MARSEILLE Sandrine 01:01:59 V1F 24 00:29:21 00:22:25 9,680 06:12
257 10073 MACREZ Sabrina 01:02:05 SEF 30 00:29:27 00:22:26 9,664 06:12
258 10074 MACREZ Jérôme 01:02:05 SEM 79 00:29:27 00:27:51 9,664 06:12
259 10023 SIMON Denis 01:02:12 V1M 79 00:29:34 00:25:38 9,646 06:13
260 10060 BRIEZ Ingrid 01:02:12 V1F 25 00:29:34 00:22:38 9,646 06:13
261 10007 BELLET Ana 01:02:29 V2F 5 00:29:51 00:11:41 LYS CALAIS TRIATHLON 9,603 06:15
262 10006 BELLET Roland 01:04:08 V4M 1 00:31:30 00:00:00 9,356 06:25
263 10011 VANDOMME Denis 01:04:26 V1M 80 00:31:48 00:27:52 9,312 06:27
264 10059 BRIEZ Jerome 01:04:50 V1M 81 00:32:12 00:28:16 9,254 06:29
265 10163 DEFACHELLES Bruno 01:04:51 V1M 82 00:32:13 00:28:17 9,252 06:29
266 10099 MARSEILLE Frédéric 01:04:51 V2M 21 00:32:13 00:26:02 9,252 06:29
267 10147 VALANCE David 01:06:47 V1M 83 00:34:09 00:30:13 8,984 06:41
268 10134 RIQUIER Marielle 01:07:37 V2F 6 00:34:59 00:16:49 AMICALE LE DRAPEAU LE PORTEL 8,874 06:46
269 10273 MAHIEUX CHARLOTTE 01:09:21 SEF 31 00:36:43 00:29:42 - 8,652 06:56
270 10054 DENIS Norbert 01:11:18 V3M 8 00:38:40 00:28:55 8,415 07:08

 

Novembre 2017
Lun Mar Mer Jeu Ven Sam Dim
1
2
3
4
5
6
7
8
9
10
11
12
13
14
15
16
17
18
19
20
21
22
23
24
25
27
28
29
30